Garcia Miguel — CUGT9 — position and weather

sailwx.info

Track history (hours):
 
Tides and Currents Weather Stations Pressure Air Temp Water Temp Dewpoint Dewpoint Depression Visibility Wind Speed Wind Dir Waves Ship Positions

Garcia Miguel

Last reported at 2017-Jun-04 02:58 UTC. Time now 2017-Jun-23 01:56 UTC.
Position N 39°17' W 009°24'.
Warning: this ship's position is 18 days out of date.

Length 20 m.

Type: Fishing. MMSI: 263500286.

Date/timePositionNaut miles runAvg speedWind from/ knotsBaromVisibWave heightAir tempDewpointWater temp
2017-Jun-04 02:58N 39°17' W 009°24'3 6.1
2017-Jun-04 02:29N 39°14' W 009°25'3 6.0
2017-Jun-04 02:00N 39°12' W 009°26'3 5.9
2017-Jun-04 01:30N 39°09' W 009°28'3 5.8
2017-Jun-04 01:00N 39°06' W 009°29'3 5.6
2017-Jun-04 00:30N 39°04' W 009°30'3 5.8
2017-Jun-04 00:00N 39°01' W 009°32'3 5.7
2017-Jun-03 23:30N 38°58' W 009°33'3 5.7
2017-Jun-03 23:00N 38°56' W 009°34'3 5.5
2017-Jun-03 22:30N 38°53' W 009°36'3 5.4
2017-Jun-03 22:00N 38°51' W 009°37'3 5.4
2017-Jun-03 21:30N 38°48' W 009°38'3 5.4
2017-Jun-03 21:00N 38°46' W 009°39'3 5.3
2017-Jun-03 20:30N 38°43' W 009°41'3 5.0
2017-Jun-03 20:00N 38°41' W 009°42'3 5.1
2017-Jun-03 19:30N 38°39' W 009°44'3 5.2
2017-Jun-03 19:00N 38°37' W 009°46'3 5.3
2017-Jun-03 18:30N 38°35' W 009°48'3 5.2
2017-Jun-03 18:00N 38°32' W 009°50'3 5.2
2017-Jun-03 17:30N 38°30' W 009°52'3 5.5
2017-Jun-03 17:00N 38°28' W 009°54'3 5.4
2017-Jun-03 16:29N 38°26' W 009°56'3 5.2
2017-Jun-03 16:00N 38°24' W 009°58'114 3.4
2017-Jun-02 06:15N 36°43' W 011°05'1 1.4
2017-Jun-02 05:27N 36°42' W 011°05'4 1.4
2017-Jun-02 02:32N 36°45' W 011°03'  
Track history (hours):
 
Tides and Currents Weather Stations Pressure Air Temp Water Temp Dewpoint Dewpoint Depression Visibility Wind Speed Wind Dir Waves Ship Positions

Garcia Miguel

Last reported at 2017-Jun-04 02:58 UTC. Time now 2017-Jun-23 01:56 UTC.
Position N 39°17' W 009°24'.
Warning: this ship's position is 18 days out of date.

Length 20 m.

Type: Fishing. MMSI: 263500286.

Date/timePositionNaut miles runAvg speedWind from/ knotsBaromVisibWave heightAir tempDewpointWater temp
2017-Jun-04 02:58N 39°17' W 009°24'3 6.1
2017-Jun-04 02:29N 39°14' W 009°25'3 6.0
2017-Jun-04 02:00N 39°12' W 009°26'3 5.9
2017-Jun-04 01:30N 39°09' W 009°28'3 5.8
2017-Jun-04 01:00N 39°06' W 009°29'3 5.6
2017-Jun-04 00:30N 39°04' W 009°30'3 5.8
2017-Jun-04 00:00N 39°01' W 009°32'3 5.7
2017-Jun-03 23:30N 38°58' W 009°33'3 5.7
2017-Jun-03 23:00N 38°56' W 009°34'3 5.5
2017-Jun-03 22:30N 38°53' W 009°36'3 5.4
2017-Jun-03 22:00N 38°51' W 009°37'3 5.4
2017-Jun-03 21:30N 38°48' W 009°38'3 5.4
2017-Jun-03 21:00N 38°46' W 009°39'3 5.3
2017-Jun-03 20:30N 38°43' W 009°41'3 5.0
2017-Jun-03 20:00N 38°41' W 009°42'3 5.1
2017-Jun-03 19:30N 38°39' W 009°44'3 5.2
2017-Jun-03 19:00N 38°37' W 009°46'3 5.3
2017-Jun-03 18:30N 38°35' W 009°48'3 5.2
2017-Jun-03 18:00N 38°32' W 009°50'3 5.2
2017-Jun-03 17:30N 38°30' W 009°52'3 5.5
2017-Jun-03 17:00N 38°28' W 009°54'3 5.4
2017-Jun-03 16:29N 38°26' W 009°56'3 5.2
2017-Jun-03 16:00N 38°24' W 009°58'114 3.4
2017-Jun-02 06:15N 36°43' W 011°05'1 1.4
2017-Jun-02 05:27N 36°42' W 011°05'4 1.4
2017-Jun-02 02:32N 36°45' W 011°03'  

Dump ship's entire track history